sensor_id;sensor_type;location;lat;lon;timestamp;pressure;altitude;pressure_sealevel;temperature;humidity
75627;BME280;64211;49.404;11.034;2022-11-15T00:01:54;98074.38;;;5.69;83.85
75627;BME280;64211;49.404;11.034;2022-11-15T00:04:20;98073.69;;;5.67;84.77
75627;BME280;64211;49.404;11.034;2022-11-15T00:06:46;98065.13;;;5.65;84.08
75627;BME280;64211;49.404;11.034;2022-11-15T00:09:12;98066.16;;;5.64;85.42
75627;BME280;64211;49.404;11.034;2022-11-15T00:11:37;98067.97;;;5.63;84.22
75627;BME280;64211;49.404;11.034;2022-11-15T00:14:03;98071.44;;;5.64;85.16
75627;BME280;64211;49.404;11.034;2022-11-15T00:16:29;98067.78;;;5.65;84.40
75627;BME280;64211;49.404;11.034;2022-11-15T00:18:55;98068.41;;;5.67;84.03
75627;BME280;64211;49.404;11.034;2022-11-15T00:21:20;98064.31;;;5.64;84.56
75627;BME280;64211;49.404;11.034;2022-11-15T00:23:46;98065.50;;;5.62;84.14
75627;BME280;64211;49.404;11.034;2022-11-15T00:26:14;98067.34;;;5.61;84.35
75627;BME280;64211;49.404;11.034;2022-11-15T00:28:41;98067.72;;;5.58;85.13
75627;BME280;64211;49.404;11.034;2022-11-15T00:31:12;98067.91;;;5.57;84.43
75627;BME280;64211;49.404;11.034;2022-11-15T00:33:38;98070.13;;;5.53;84.94
75627;BME280;64211;49.404;11.034;2022-11-15T00:36:06;98076.59;;;5.50;84.68
75627;BME280;64211;49.404;11.034;2022-11-15T00:38:33;98073.97;;;5.50;84.28
75627;BME280;64211;49.404;11.034;2022-11-15T00:41:00;98062.56;;;5.50;84.06
75627;BME280;64211;49.404;11.034;2022-11-15T00:43:34;98064.75;;;5.46;84.72
75627;BME280;64211;49.404;11.034;2022-11-15T00:46:00;98065.09;;;5.43;84.34
75627;BME280;64211;49.404;11.034;2022-11-15T00:48:28;98061.84;;;5.41;84.14
75627;BME280;64211;49.404;11.034;2022-11-15T00:50:53;98057.75;;;5.39;84.17
75627;BME280;64211;49.404;11.034;2022-11-15T00:53:19;98061.38;;;5.38;83.84
75627;BME280;64211;49.404;11.034;2022-11-15T00:55:46;98057.94;;;5.37;84.47
75627;BME280;64211;49.404;11.034;2022-11-15T00:58:11;98059.31;;;5.33;84.27
75627;BME280;64211;49.404;11.034;2022-11-15T01:00:37;98058.69;;;5.31;83.54
75627;BME280;64211;49.404;11.034;2022-11-15T01:03:03;98050.94;;;5.30;83.92
75627;BME280;64211;49.404;11.034;2022-11-15T01:05:29;98052.94;;;5.28;84.58
75627;BME280;64211;49.404;11.034;2022-11-15T01:07:55;98044.38;;;5.26;84.22
75627;BME280;64211;49.404;11.034;2022-11-15T01:10:22;98046.59;;;5.22;84.86
75627;BME280;64211;49.404;11.034;2022-11-15T01:12:48;98043.47;;;5.18;84.90
75627;BME280;64211;49.404;11.034;2022-11-15T01:15:14;98046.69;;;5.14;84.90
75627;BME280;64211;49.404;11.034;2022-11-15T01:17:40;98047.69;;;5.13;84.21
75627;BME280;64211;49.404;11.034;2022-11-15T01:20:06;98046.69;;;5.14;84.33
75627;BME280;64211;49.404;11.034;2022-11-15T01:22:32;98046.03;;;5.12;84.47
75627;BME280;64211;49.404;11.034;2022-11-15T01:24:58;98044.41;;;5.11;84.22
75627;BME280;64211;49.404;11.034;2022-11-15T01:27:24;98049.06;;;5.09;83.76
75627;BME280;64211;49.404;11.034;2022-11-15T01:29:49;98040.50;;;5.07;84.42
75627;BME280;64211;49.404;11.034;2022-11-15T01:32:16;98029.47;;;5.03;84.96
75627;BME280;64211;49.404;11.034;2022-11-15T01:34:41;98032.31;;;5.02;85.61
75627;BME280;64211;49.404;11.034;2022-11-15T01:37:07;98030.88;;;4.99;85.27
75627;BME280;64211;49.404;11.034;2022-11-15T01:39:33;98030.22;;;4.97;86.27
75627;BME280;64211;49.404;11.034;2022-11-15T01:41:58;98029.56;;;4.95;85.84
75627;BME280;64211;49.404;11.034;2022-11-15T01:46:57;98026.47;;;4.91;84.58
75627;BME280;64211;49.404;11.034;2022-11-15T01:49:24;98028.69;;;4.88;85.34
75627;BME280;64211;49.404;11.034;2022-11-15T01:51:50;98017.66;;;4.84;86.38
75627;BME280;64211;49.404;11.034;2022-11-15T01:54:19;98021.31;;;4.83;85.95
75627;BME280;64211;49.404;11.034;2022-11-15T01:56:59;98011.56;;;4.84;85.52
75627;BME280;64211;49.404;11.034;2022-11-15T01:59:27;98005.38;;;4.77;87.01
75627;BME280;64211;49.404;11.034;2022-11-15T02:01:53;98003.75;;;4.76;85.82
75627;BME280;64211;49.404;11.034;2022-11-15T02:04:24;97999.47;;;4.75;86.13
75627;BME280;64211;49.404;11.034;2022-11-15T02:06:51;97997.00;;;4.73;86.14
75627;BME280;64211;49.404;11.034;2022-11-15T02:09:17;97993.34;;;4.74;85.43
75627;BME280;64211;49.404;11.034;2022-11-15T02:11:43;97989.91;;;4.74;85.47
75627;BME280;64211;49.404;11.034;2022-11-15T02:14:10;97990.06;;;4.72;86.71
75627;BME280;64211;49.404;11.034;2022-11-15T02:30:23;97960.91;;;4.66;86.89
75627;BME280;64211;49.404;11.034;2022-11-15T02:32:58;97961.75;;;4.66;87.77
75627;BME280;64211;49.404;11.034;2022-11-15T02:38:06;97958.91;;;4.68;85.10
75627;BME280;64211;49.404;11.034;2022-11-15T02:40:50;97958.72;;;4.69;85.18
75627;BME280;64211;49.404;11.034;2022-11-15T02:43:29;97952.63;;;4.69;85.10
75627;BME280;64211;49.404;11.034;2022-11-15T02:46:29;97955.91;;;4.71;85.12
75627;BME280;64211;49.404;11.034;2022-11-15T02:49:26;97956.53;;;4.73;84.14
75627;BME280;64211;49.404;11.034;2022-11-15T02:51:54;97953.53;;;4.76;84.67
75627;BME280;64211;49.404;11.034;2022-11-15T02:54:25;97945.00;;;4.74;84.26
75627;BME280;64211;49.404;11.034;2022-11-15T02:56:53;97942.50;;;4.72;84.04
75627;BME280;64211;49.404;11.034;2022-11-15T02:59:52;97928.22;;;4.67;85.26
75627;BME280;64211;49.404;11.034;2022-11-15T03:02:47;97926.13;;;4.62;85.53
75627;BME280;64211;49.404;11.034;2022-11-15T03:05:37;97919.97;;;4.55;86.19
75627;BME280;64211;49.404;11.034;2022-11-15T03:08:32;97920.97;;;4.54;86.22
75627;BME280;64211;49.404;11.034;2022-11-15T03:11:10;97923.78;;;4.52;85.58
75627;BME280;64211;49.404;11.034;2022-11-15T03:16:34;97909.47;;;4.47;86.31
75627;BME280;64211;49.404;11.034;2022-11-15T03:21:55;97914.88;;;4.39;86.35
75627;BME280;64211;49.404;11.034;2022-11-15T03:24:25;97915.06;;;4.37;85.67
75627;BME280;64211;49.404;11.034;2022-11-15T03:26:54;97921.63;;;4.41;84.72
75627;BME280;64211;49.404;11.034;2022-11-15T03:29:31;97913.50;;;4.43;84.43
75627;BME280;64211;49.404;11.034;2022-11-15T03:32:05;97903.56;;;4.45;84.14
75627;BME280;64211;49.404;11.034;2022-11-15T03:34:40;97905.22;;;4.46;83.85
75627;BME280;64211;49.404;11.034;2022-11-15T03:37:08;97905.59;;;4.43;83.86
75627;BME280;64211;49.404;11.034;2022-11-15T03:39:35;97894.56;;;4.39;84.01
75627;BME280;64211;49.404;11.034;2022-11-15T03:42:22;97896.78;;;4.36;84.39
75627;BME280;64211;49.404;11.034;2022-11-15T03:44:55;97905.06;;;4.32;83.71
75627;BME280;64211;49.404;11.034;2022-11-15T03:47:32;97902.59;;;4.31;84.38
75627;BME280;64211;49.404;11.034;2022-11-15T03:50:03;97891.41;;;4.29;84.38
75627;BME280;64211;49.404;11.034;2022-11-15T03:52:33;97889.97;;;4.26;84.58
75627;BME280;64211;49.404;11.034;2022-11-15T03:55:01;97887.03;;;4.21;84.65
75627;BME280;64211;49.404;11.034;2022-11-15T03:57:28;97882.94;;;4.19;85.16
75627;BME280;64211;49.404;11.034;2022-11-15T03:59:54;97889.84;;;4.20;84.57
75627;BME280;64211;49.404;11.034;2022-11-15T04:02:19;97888.84;;;4.21;83.87
75627;BME280;64211;49.404;11.034;2022-11-15T04:04:46;97890.50;;;4.22;84.35
75627;BME280;64211;49.404;11.034;2022-11-15T04:07:11;97885.03;;;4.23;84.07
75627;BME280;64211;49.404;11.034;2022-11-15T04:09:37;97885.41;;;4.20;83.81
75627;BME280;64211;49.404;11.034;2022-11-15T04:12:23;97904.06;;;4.19;84.19
75627;BME280;64211;49.404;11.034;2022-11-15T04:15:07;97898.16;;;4.17;84.84
75627;BME280;64211;49.404;11.034;2022-11-15T04:17:45;97909.88;;;4.14;84.27
75627;BME280;64211;49.404;11.034;2022-11-15T04:20:17;97898.69;;;4.12;85.83
75627;BME280;64211;49.404;11.034;2022-11-15T04:23:05;97896.44;;;4.09;84.52
75627;BME280;64211;49.404;11.034;2022-11-15T04:25:51;97899.25;;;4.08;84.84
75627;BME280;64211;49.404;11.034;2022-11-15T04:28:17;97900.78;;;4.02;86.50
75627;BME280;64211;49.404;11.034;2022-11-15T04:30:43;97892.22;;;4.00;86.05
75627;BME280;64211;49.404;11.034;2022-11-15T04:33:09;97899.31;;;3.99;86.40
75627;BME280;64211;49.404;11.034;2022-11-15T04:35:35;97892.41;;;3.98;85.06
75627;BME280;64211;49.404;11.034;2022-11-15T04:38:02;97891.22;;;4.01;85.51
75627;BME280;64211;49.404;11.034;2022-11-15T04:40:28;97900.63;;;4.04;84.45
75627;BME280;64211;49.404;11.034;2022-11-15T04:42:54;97889.25;;;4.03;86.17
75627;BME280;64211;49.404;11.034;2022-11-15T04:45:27;97892.59;;;3.97;85.93
75627;BME280;64211;49.404;11.034;2022-11-15T04:47:53;97882.41;;;3.94;86.78
75627;BME280;64211;49.404;11.034;2022-11-15T04:50:18;97886.06;;;3.93;85.34
75627;BME280;64211;49.404;11.034;2022-11-15T04:52:51;97886.69;;;3.95;85.20
75627;BME280;64211;49.404;11.034;2022-11-15T04:55:17;97882.03;;;3.97;85.15
75627;BME280;64211;49.404;11.034;2022-11-15T04:57:43;97873.50;;;3.95;85.39
75627;BME280;64211;49.404;11.034;2022-11-15T05:00:12;97865.56;;;3.95;85.29
75627;BME280;64211;49.404;11.034;2022-11-15T05:02:38;97860.31;;;3.95;84.49
75627;BME280;64211;49.404;11.034;2022-11-15T05:05:23;97855.84;;;3.95;84.21
75627;BME280;64211;49.404;11.034;2022-11-15T05:07:49;97860.03;;;3.90;84.93
75627;BME280;64211;49.404;11.034;2022-11-15T05:10:15;97850.22;;;3.84;85.29
75627;BME280;64211;49.404;11.034;2022-11-15T05:12:41;97841.03;;;3.80;86.08
75627;BME280;64211;49.404;11.034;2022-11-15T05:15:07;97838.75;;;3.77;86.00
75627;BME280;64211;49.404;11.034;2022-11-15T05:17:33;97844.00;;;3.77;85.50
75627;BME280;64211;49.404;11.034;2022-11-15T05:19:58;97841.38;;;3.77;85.60
75627;BME280;64211;49.404;11.034;2022-11-15T05:22:24;97843.00;;;3.78;85.05
75627;BME280;64211;49.404;11.034;2022-11-15T05:24:50;97843.81;;;3.78;84.63
75627;BME280;64211;49.404;11.034;2022-11-15T05:27:16;97843.00;;;3.78;84.69
75627;BME280;64211;49.404;11.034;2022-11-15T05:29:42;97837.09;;;3.76;85.19
75627;BME280;64211;49.404;11.034;2022-11-15T05:32:09;97840.09;;;3.73;84.68
75627;BME280;64211;49.404;11.034;2022-11-15T05:34:35;97849.03;;;3.72;85.09
75627;BME280;64211;49.404;11.034;2022-11-15T05:37:02;97837.66;;;3.71;84.83
75627;BME280;64211;49.404;11.034;2022-11-15T05:39:28;97843.56;;;3.73;84.34
75627;BME280;64211;49.404;11.034;2022-11-15T05:41:59;97840.09;;;3.73;84.22
75627;BME280;64211;49.404;11.034;2022-11-15T05:44:27;97847.03;;;3.74;84.04
75627;BME280;64211;49.404;11.034;2022-11-15T05:46:54;97837.28;;;3.74;84.50
75627;BME280;64211;49.404;11.034;2022-11-15T05:49:24;97836.47;;;3.74;83.81
75627;BME280;64211;49.404;11.034;2022-11-15T05:51:51;97833.38;;;3.70;84.42
75627;BME280;64211;49.404;11.034;2022-11-15T05:54:19;97838.84;;;3.68;83.90
75627;BME280;64211;49.404;11.034;2022-11-15T05:56:46;97837.00;;;3.69;84.55
75627;BME280;64211;49.404;11.034;2022-11-15T05:59:12;97831.94;;;3.67;83.63
75627;BME280;64211;49.404;11.034;2022-11-15T06:01:39;97839.84;;;3.67;83.89
75627;BME280;64211;49.404;11.034;2022-11-15T06:04:05;97837.56;;;3.64;83.68
75627;BME280;64211;49.404;11.034;2022-11-15T06:06:31;97836.94;;;3.62;84.12
75627;BME280;64211;49.404;11.034;2022-11-15T06:08:57;97839.75;;;3.61;83.64
75627;BME280;64211;49.404;11.034;2022-11-15T06:11:23;97842.03;;;3.64;83.91
75627;BME280;64211;49.404;11.034;2022-11-15T06:13:48;97840.28;;;3.71;84.36
75627;BME280;64211;49.404;11.034;2022-11-15T06:16:14;97840.38;;;3.78;84.09
75627;BME280;64211;49.404;11.034;2022-11-15T06:18:40;97840.66;;;3.83;83.75
75627;BME280;64211;49.404;11.034;2022-11-15T06:21:06;97847.75;;;3.82;84.08
75627;BME280;64211;49.404;11.034;2022-11-15T06:23:33;97846.94;;;3.82;83.65
75627;BME280;64211;49.404;11.034;2022-11-15T06:26:00;97849.78;;;3.80;84.89
75627;BME280;64211;49.404;11.034;2022-11-15T06:28:32;97849.94;;;3.79;84.53
75627;BME280;64211;49.404;11.034;2022-11-15T06:31:05;97851.59;;;3.80;84.05
75627;BME280;64211;49.404;11.034;2022-11-15T06:33:31;97852.22;;;3.82;84.59
75627;BME280;64211;49.404;11.034;2022-11-15T06:36:02;97850.03;;;3.85;84.38
75627;BME280;64211;49.404;11.034;2022-11-15T06:38:28;97850.66;;;3.87;85.69
75627;BME280;64211;49.404;11.034;2022-11-15T06:40:54;97844.66;;;3.93;85.64
75627;BME280;64211;49.404;11.034;2022-11-15T06:43:20;97849.38;;;3.98;85.08
75627;BME280;64211;49.404;11.034;2022-11-15T06:45:46;97846.22;;;4.03;84.30
75627;BME280;64211;49.404;11.034;2022-11-15T06:48:11;97851.31;;;4.04;84.75
75627;BME280;64211;49.404;11.034;2022-11-15T06:50:37;97857.03;;;4.08;83.87
75627;BME280;64211;49.404;11.034;2022-11-15T06:53:03;97857.28;;;4.13;84.13
75627;BME280;64211;49.404;11.034;2022-11-15T06:55:29;97856.09;;;4.15;84.39
75627;BME280;64211;49.404;11.034;2022-11-15T06:57:55;97856.91;;;4.16;84.10
75627;BME280;64211;49.404;11.034;2022-11-15T07:00:21;97853.91;;;4.19;84.02
75627;BME280;64211;49.404;11.034;2022-11-15T07:02:48;97858.81;;;4.22;84.32
75627;BME280;64211;49.404;11.034;2022-11-15T07:05:15;97854.16;;;4.24;83.45
75627;BME280;64211;49.404;11.034;2022-11-15T07:07:41;97852.44;;;4.31;83.67
75627;BME280;64211;49.404;11.034;2022-11-15T07:10:07;97848.44;;;4.35;83.32
75627;BME280;64211;49.404;11.034;2022-11-15T07:12:33;97851.13;;;4.42;83.78
75627;BME280;64211;49.404;11.034;2022-11-15T07:14:59;97842.84;;;4.45;83.14
75627;BME280;64211;49.404;11.034;2022-11-15T07:17:25;97844.47;;;4.46;83.56
75627;BME280;64211;49.404;11.034;2022-11-15T07:19:51;97830.72;;;4.50;84.09
75627;BME280;64211;49.404;11.034;2022-11-15T07:22:16;97830.59;;;4.58;83.08
75627;BME280;64211;49.404;11.034;2022-11-15T07:24:42;97824.19;;;4.68;83.25
75627;BME280;64211;49.404;11.034;2022-11-15T07:27:08;97829.63;;;4.81;83.33
75627;BME280;64211;49.404;11.034;2022-11-15T07:29:34;97830.72;;;4.93;82.93
75627;BME280;64211;49.404;11.034;2022-11-15T07:31:59;97840.41;;;5.07;83.12
75627;BME280;64211;49.404;11.034;2022-11-15T07:34:25;97835.63;;;5.17;82.14
75627;BME280;64211;49.404;11.034;2022-11-15T07:36:51;97831.66;;;5.28;82.28
75627;BME280;64211;49.404;11.034;2022-11-15T07:39:17;97824.38;;;5.37;82.07
75627;BME280;64211;49.404;11.034;2022-11-15T07:41:42;97829.97;;;5.48;81.87
75627;BME280;64211;49.404;11.034;2022-11-15T07:44:09;97826.97;;;5.58;81.35
75627;BME280;64211;49.404;11.034;2022-11-15T07:46:34;97821.31;;;5.68;81.63
75627;BME280;64211;49.404;11.034;2022-11-15T07:49:00;97818.53;;;5.76;81.13
75627;BME280;64211;49.404;11.034;2022-11-15T07:51:26;97824.47;;;5.84;80.54
75627;BME280;64211;49.404;11.034;2022-11-15T07:53:52;97821.53;;;5.94;80.56
75627;BME280;64211;49.404;11.034;2022-11-15T07:56:17;97820.34;;;6.03;80.56
75627;BME280;64211;49.404;11.034;2022-11-15T07:58:45;97822.59;;;6.13;80.73
75627;BME280;64211;49.404;11.034;2022-11-15T08:01:11;97816.97;;;6.23;80.89
75627;BME280;64211;49.404;11.034;2022-11-15T08:03:38;97824.53;;;6.32;80.04
75627;BME280;64211;49.404;11.034;2022-11-15T08:06:04;97823.97;;;6.43;80.01
75627;BME280;64211;49.404;11.034;2022-11-15T08:08:30;97815.63;;;6.53;79.36
75627;BME280;64211;49.404;11.034;2022-11-15T08:10:57;97813.59;;;6.62;79.01
75627;BME280;64211;49.404;11.034;2022-11-15T08:13:23;97810.97;;;6.68;79.68
75627;BME280;64211;49.404;11.034;2022-11-15T08:15:49;97814.03;;;6.78;79.49
75627;BME280;64211;49.404;11.034;2022-11-15T08:18:22;97812.66;;;6.89;79.01
75627;BME280;64211;49.404;11.034;2022-11-15T08:20:48;97813.66;;;7.01;78.94
75627;BME280;64211;49.404;11.034;2022-11-15T08:23:14;97814.91;;;7.12;78.51
75627;BME280;64211;49.404;11.034;2022-11-15T08:25:39;97806.53;;;7.22;78.74
75627;BME280;64211;49.404;11.034;2022-11-15T08:28:07;97809.41;;;7.33;78.28
75627;BME280;64211;49.404;11.034;2022-11-15T08:30:39;97797.75;;;7.41;77.66
75627;BME280;64211;49.404;11.034;2022-11-15T08:33:10;97796.28;;;7.52;77.22
75627;BME280;64211;49.404;11.034;2022-11-15T08:35:36;97801.19;;;7.61;77.38
75627;BME280;64211;49.404;11.034;2022-11-15T08:38:02;97796.84;;;7.74;76.57
75627;BME280;64211;49.404;11.034;2022-11-15T08:40:27;97787.06;;;7.81;75.50
75627;BME280;64211;49.404;11.034;2022-11-15T08:42:53;97794.16;;;7.93;76.59
75627;BME280;64211;49.404;11.034;2022-11-15T08:45:19;97793.69;;;8.03;76.67
75627;BME280;64211;49.404;11.034;2022-11-15T08:47:45;97787.53;;;8.16;76.01
75627;BME280;64211;49.404;11.034;2022-11-15T08:50:18;97786.25;;;8.31;76.31
75627;BME280;64211;49.404;11.034;2022-11-15T08:52:43;97788.69;;;8.40;74.82
75627;BME280;64211;49.404;11.034;2022-11-15T08:55:09;97783.91;;;8.48;75.24
75627;BME280;64211;49.404;11.034;2022-11-15T08:57:35;97784.88;;;8.60;73.73
75627;BME280;64211;49.404;11.034;2022-11-15T09:00:01;97785.44;;;8.69;74.87
75627;BME280;64211;49.404;11.034;2022-11-15T09:02:26;97789.69;;;8.77;72.87
75627;BME280;64211;49.404;11.034;2022-11-15T09:04:52;97784.91;;;8.85;74.80
75627;BME280;64211;49.404;11.034;2022-11-15T09:07:18;97787.47;;;8.99;74.54
75627;BME280;64211;49.404;11.034;2022-11-15T09:09:44;97787.00;;;9.08;73.72
75627;BME280;64211;49.404;11.034;2022-11-15T09:12:10;97779.56;;;9.17;73.80
75627;BME280;64211;49.404;11.034;2022-11-15T09:14:35;97781.53;;;9.28;73.54
75627;BME280;64211;49.404;11.034;2022-11-15T09:17:01;97780.78;;;9.39;72.84
75627;BME280;64211;49.404;11.034;2022-11-15T09:19:27;97771.28;;;9.50;72.28
75627;BME280;64211;49.404;11.034;2022-11-15T09:21:52;97768.91;;;9.60;71.82
75627;BME280;64211;49.404;11.034;2022-11-15T09:24:18;97762.25;;;9.69;71.23
75627;BME280;64211;49.404;11.034;2022-11-15T09:26:44;97767.09;;;9.79;71.94
75627;BME280;64211;49.404;11.034;2022-11-15T09:29:10;97765.28;;;9.91;70.99
75627;BME280;64211;49.404;11.034;2022-11-15T09:31:36;97761.91;;;10.02;70.51
75627;BME280;64211;49.404;11.034;2022-11-15T09:34:01;97763.22;;;10.11;71.40
75627;BME280;64211;49.404;11.034;2022-11-15T09:36:28;97761.94;;;10.14;68.96
75627;BME280;64211;49.404;11.034;2022-11-15T09:38:53;97757.41;;;10.21;70.61
75627;BME280;64211;49.404;11.034;2022-11-15T09:44:16;97743.97;;;10.28;66.35
75627;BME280;64211;49.404;11.034;2022-11-15T09:50:11;97745.19;;;10.43;67.72
75627;BME280;64211;49.404;11.034;2022-11-15T09:52:42;97735.84;;;10.53;67.93
75627;BME280;64211;49.404;11.034;2022-11-15T09:55:10;97738.75;;;10.63;67.96
75627;BME280;64211;49.404;11.034;2022-11-15T09:57:47;97741.09;;;10.71;66.48
75627;BME280;64211;49.404;11.034;2022-11-15T10:00:21;97730.31;;;10.77;64.88
75627;BME280;64211;49.404;11.034;2022-11-15T10:03:19;97728.94;;;10.87;66.57
75627;BME280;64211;49.404;11.034;2022-11-15T10:05:50;97723.88;;;10.97;64.94
75627;BME280;64211;49.404;11.034;2022-11-15T10:11:17;97715.53;;;11.17;65.39
75627;BME280;64211;49.404;11.034;2022-11-15T10:14:15;97711.78;;;11.29;65.24
75627;BME280;64211;49.404;11.034;2022-11-15T10:25:21;97697.56;;;11.76;61.05
75627;BME280;64211;49.404;11.034;2022-11-15T10:31:11;97676.63;;;11.96;62.13
75627;BME280;64211;49.404;11.034;2022-11-15T10:33:46;97670.19;;;12.09;63.12
75627;BME280;64211;49.404;11.034;2022-11-15T10:46:38;97656.09;;;12.58;59.96
75627;BME280;64211;49.404;11.034;2022-11-15T10:49:14;97652.75;;;12.68;61.56
75627;BME280;64211;49.404;11.034;2022-11-15T10:51:44;97649.22;;;12.79;61.34
75627;BME280;64211;49.404;11.034;2022-11-15T10:54:12;97648.06;;;12.92;61.63
75627;BME280;64211;49.404;11.034;2022-11-15T10:56:50;97638.78;;;13.00;58.94
75627;BME280;64211;49.404;11.034;2022-11-15T10:59:24;97638.31;;;13.03;57.00
75627;BME280;64211;49.404;11.034;2022-11-15T11:01:51;97633.34;;;13.11;59.35
75627;BME280;64211;49.404;11.034;2022-11-15T11:04:17;97628.50;;;13.25;59.85
75627;BME280;64211;49.404;11.034;2022-11-15T11:06:48;97631.28;;;13.35;58.30
75627;BME280;64211;49.404;11.034;2022-11-15T11:11:56;97632.56;;;13.49;57.13
75627;BME280;64211;49.404;11.034;2022-11-15T11:22:20;97608.78;;;13.80;55.37
75627;BME280;64211;49.404;11.034;2022-11-15T11:25:11;97609.44;;;13.92;57.33
75627;BME280;64211;49.404;11.034;2022-11-15T11:28:02;97602.59;;;14.01;56.04
75627;BME280;64211;49.404;11.034;2022-11-15T11:33:31;97604.66;;;14.21;57.02
75627;BME280;64211;49.404;11.034;2022-11-15T11:36:16;97601.25;;;14.31;57.15
75627;BME280;64211;49.404;11.034;2022-11-15T11:38:56;97598.91;;;14.39;53.77
75627;BME280;64211;49.404;11.034;2022-11-15T11:47:10;97570.34;;;14.55;54.39
75627;BME280;64211;49.404;11.034;2022-11-15T11:49:47;97572.50;;;14.58;51.52
75627;BME280;64211;49.404;11.034;2022-11-15T11:52:26;97572.53;;;14.63;51.22
75627;BME280;64211;49.404;11.034;2022-11-15T11:57:46;97565.66;;;14.78;52.64
75627;BME280;64211;49.404;11.034;2022-11-15T12:00:22;97557.38;;;14.84;53.54
75627;BME280;64211;49.404;11.034;2022-11-15T12:03:04;97550.69;;;14.87;50.52
75627;BME280;64211;49.404;11.034;2022-11-15T12:05:51;97553.91;;;14.89;51.61
75627;BME280;64211;49.404;11.034;2022-11-15T12:08:38;97548.53;;;14.89;50.34
75627;BME280;64211;49.404;11.034;2022-11-15T12:11:14;97547.47;;;14.90;50.75
75627;BME280;64211;49.404;11.034;2022-11-15T12:13:44;97549.41;;;14.94;51.42
75627;BME280;64211;49.404;11.034;2022-11-15T12:16:19;97542.44;;;14.98;51.35
75627;BME280;64211;49.404;11.034;2022-11-15T12:18:53;97548.09;;;15.07;53.31
75627;BME280;64211;49.404;11.034;2022-11-15T12:21:32;97545.44;;;15.12;50.50
75627;BME280;64211;49.404;11.034;2022-11-15T12:24:41;97545.19;;;15.14;51.54
75627;BME280;64211;49.404;11.034;2022-11-15T12:27:31;97537.09;;;15.09;50.92
75627;BME280;64211;49.404;11.034;2022-11-15T12:30:04;97538.69;;;15.04;50.62
75627;BME280;64211;49.404;11.034;2022-11-15T12:32:35;97542.19;;;15.05;51.75
75627;BME280;64211;49.404;11.034;2022-11-15T12:35:05;97538.69;;;15.04;52.62
75627;BME280;64211;49.404;11.034;2022-11-15T12:42:41;97529.56;;;15.05;51.26
75627;BME280;64211;49.404;11.034;2022-11-15T12:45:30;97529.84;;;15.09;52.32
75627;BME280;64211;49.404;11.034;2022-11-15T13:01:09;97510.31;;;15.29;51.74
75627;BME280;64211;49.404;11.034;2022-11-15T13:06:43;97516.78;;;15.33;52.61
75627;BME280;64211;49.404;11.034;2022-11-15T13:11:54;97514.09;;;15.33;52.99
75627;BME280;64211;49.404;11.034;2022-11-15T13:14:49;97511.13;;;15.34;52.77
75627;BME280;64211;49.404;11.034;2022-11-15T13:19:52;97509.22;;;15.15;50.25
75627;BME280;64211;49.404;11.034;2022-11-15T13:22:19;97512.13;;;15.13;52.75
75627;BME280;64211;49.404;11.034;2022-11-15T13:25:04;97504.88;;;15.09;52.45
75627;BME280;64211;49.404;11.034;2022-11-15T13:27:40;97503.50;;;15.06;52.98
75627;BME280;64211;49.404;11.034;2022-11-15T13:30:13;97495.72;;;15.04;52.63
75627;BME280;64211;49.404;11.034;2022-11-15T13:32:41;97489.53;;;15.04;53.74
75627;BME280;64211;49.404;11.034;2022-11-15T13:35:07;97490.63;;;15.08;54.15
75627;BME280;64211;49.404;11.034;2022-11-15T13:37:33;97482.84;;;15.12;53.92
75627;BME280;64211;49.404;11.034;2022-11-15T13:40:28;97473.97;;;15.11;52.48
75627;BME280;64211;49.404;11.034;2022-11-15T13:42:56;97471.59;;;15.15;54.31
75627;BME280;64211;49.404;11.034;2022-11-15T13:45:23;97467.25;;;15.14;53.84
75627;BME280;64211;49.404;11.034;2022-11-15T13:47:57;97471.59;;;15.15;53.93
75627;BME280;64211;49.404;11.034;2022-11-15T13:50:30;97465.94;;;15.16;53.35
75627;BME280;64211;49.404;11.034;2022-11-15T13:53:00;97465.16;;;15.16;54.60
75627;BME280;64211;49.404;11.034;2022-11-15T13:55:29;97454.66;;;15.14;53.84
75627;BME280;64211;49.404;11.034;2022-11-15T13:58:00;97465.66;;;15.13;54.00
75627;BME280;64211;49.404;11.034;2022-11-15T14:00:44;97453.53;;;15.00;51.93
75627;BME280;64211;49.404;11.034;2022-11-15T14:03:34;97464.22;;;14.90;52.70
75627;BME280;64211;49.404;11.034;2022-11-15T14:08:34;97457.75;;;14.81;54.44
75627;BME280;64211;49.404;11.034;2022-11-15T14:11:07;97451.81;;;14.73;53.09
75627;BME280;64211;49.404;11.034;2022-11-15T14:13:33;97459.84;;;14.68;54.86
75627;BME280;64211;49.404;11.034;2022-11-15T14:16:17;97459.50;;;14.60;53.89
75627;BME280;64211;49.404;11.034;2022-11-15T14:18:48;97467.25;;;14.51;55.17
75627;BME280;64211;49.404;11.034;2022-11-15T14:21:14;97467.66;;;14.38;55.45
75627;BME280;64211;49.404;11.034;2022-11-15T14:23:39;97456.06;;;14.27;55.59
75627;BME280;64211;49.404;11.034;2022-11-15T14:26:05;97457.06;;;14.16;56.00
75627;BME280;64211;49.404;11.034;2022-11-15T14:28:37;97448.13;;;14.05;56.10
75627;BME280;64211;49.404;11.034;2022-11-15T14:31:11;97447.22;;;13.95;56.28
75627;BME280;64211;49.404;11.034;2022-11-15T14:33:38;97442.59;;;13.85;56.69
75627;BME280;64211;49.404;11.034;2022-11-15T14:36:16;97439.59;;;13.76;56.85
75627;BME280;64211;49.404;11.034;2022-11-15T14:38:42;97443.53;;;13.69;57.33
75627;BME280;64211;49.404;11.034;2022-11-15T14:41:18;97438.66;;;13.61;57.33
75627;BME280;64211;49.404;11.034;2022-11-15T14:43:45;97442.09;;;13.56;57.36
75627;BME280;64211;49.404;11.034;2022-11-15T14:46:11;97436.38;;;13.47;57.53
75627;BME280;64211;49.404;11.034;2022-11-15T14:48:37;97432.28;;;13.40;57.83
75627;BME280;64211;49.404;11.034;2022-11-15T14:51:03;97431.44;;;13.34;57.90
75627;BME280;64211;49.404;11.034;2022-11-15T14:53:28;97432.97;;;13.25;57.98
75627;BME280;64211;49.404;11.034;2022-11-15T14:55:54;97432.00;;;13.14;58.42
75627;BME280;64211;49.404;11.034;2022-11-15T14:58:20;97424.41;;;13.06;58.83
75627;BME280;64211;49.404;11.034;2022-11-15T15:00:45;97421.38;;;12.98;58.79